Time;durP1;ratioP1;P1;durP2;ratioP2;P2;SDS_P1;SDS_P2;PMS_P1;PMS_P2;Temp;Humidity;BMP_temperature;BMP_pressure;BME280_temperature;BME280_humidity;BME280_pressure;Samples;Min_cycle;Max_cycle;Signal;HPM_P1;HPM_P2
2023/06/06 00:02:07;;;;;;;1.35;1.35;;;10.00;99.90;;;;;;4930155;29;20051;-77
2023/06/06 00:04:32;;;;;;;0.38;0.38;;;10.00;99.90;;;;;;4931263;29;20048;-77
2023/06/06 00:06:58;;;;;;;3.00;1.83;;;9.90;99.90;;;;;;4942180;29;20079;-77
2023/06/06 00:09:24;;;;;;;2.13;1.88;;;9.90;99.90;;;;;;4939272;29;20051;-77
2023/06/06 00:11:50;;;;;;;1.00;0.85;;;9.90;99.90;;;;;;4929236;29;20044;-76
2023/06/06 00:14:18;;;;;;;2.75;2.35;;;9.70;99.90;;;;;;4943843;29;20069;-77
2023/06/06 00:16:48;;;;;;;1.17;1.17;;;9.70;99.90;;;;;;4925052;29;20060;-77
2023/06/06 00:19:15;;;;;;;2.92;2.72;;;9.70;99.90;;;;;;4934621;29;20039;-77
2023/06/06 00:21:41;;;;;;;2.05;1.90;;;9.70;99.90;;;;;;4934238;29;20569;-77
2023/06/06 00:24:08;;;;;;;2.72;2.40;;;9.70;99.90;;;;;;4935901;29;20457;-77
2023/06/06 00:26:33;;;;;;;3.03;2.47;;;9.70;99.90;;;;;;4929791;29;20047;-77
2023/06/06 00:28:59;;;;;;;2.60;2.38;;;9.70;99.90;;;;;;4935646;29;20390;-77
2023/06/06 00:31:24;;;;;;;9.43;5.20;;;9.70;99.90;;;;;;4924699;29;20044;-77
2023/06/06 00:33:50;;;;;;;3.30;2.88;;;9.70;99.90;;;;;;4928319;29;20044;-77
2023/06/06 00:36:16;;;;;;;1.70;1.55;;;9.70;99.90;;;;;;4937378;29;20052;-77
2023/06/06 00:38:41;;;;;;;2.38;2.17;;;9.70;99.90;;;;;;4929476;29;20075;-77
2023/06/06 00:41:07;;;;;;;2.30;1.52;;;9.80;99.90;;;;;;4935046;29;20047;-77
2023/06/06 00:43:32;;;;;;;4.00;3.55;;;9.80;99.90;;;;;;4933974;29;20497;-77
2023/06/06 00:45:58;;;;;;;1.77;1.67;;;9.90;99.90;;;;;;4933002;29;20424;-77
2023/06/06 00:48:24;;;;;;;1.60;1.50;;;10.00;99.90;;;;;;4941334;29;20047;-77
2023/06/06 00:50:51;;;;;;;4.75;1.65;;;10.00;99.90;;;;;;4929036;29;20053;-77
2023/06/06 00:53:17;;;;;;;1.67;1.58;;;10.00;99.90;;;;;;4937954;29;20059;-77
2023/06/06 00:55:43;;;;;;;2.33;2.13;;;10.10;99.90;;;;;;4928068;29;20553;-77
2023/06/06 00:58:11;;;;;;;3.33;2.15;;;10.10;99.90;;;;;;4928159;29;20827;-77
2023/06/06 01:00:39;;;;;;;1.98;1.88;;;10.10;99.90;;;;;;4937781;29;20083;-77
2023/06/06 01:03:09;;;;;;;4.15;3.08;;;10.10;99.90;;;;;;4936923;29;20083;-77
2023/06/06 01:05:39;;;;;;;2.65;2.45;;;10.10;99.90;;;;;;4933832;29;20055;-77
2023/06/06 01:08:05;;;;;;;2.30;1.48;;;10.10;99.90;;;;;;4933989;29;20131;-77
2023/06/06 01:10:34;;;;;;;1.83;1.48;;;10.10;99.90;;;;;;4939109;29;20087;-77
2023/06/06 01:13:11;;;;;;;2.25;1.02;;;10.10;99.90;;;;;;4939559;29;20059;-77
2023/06/06 01:15:47;;;;;;;1.40;1.38;;;10.10;99.90;;;;;;4935855;29;20110;-77
2023/06/06 01:18:13;;;;;;;3.80;2.70;;;10.10;99.90;;;;;;4938545;29;20031;-77
2023/06/06 01:20:41;;;;;;;2.38;1.65;;;10.10;99.90;;;;;;4926640;29;20477;-77
2023/06/06 01:23:08;;;;;;;2.17;1.52;;;10.10;99.90;;;;;;4935139;29;20047;-77
2023/06/06 01:25:35;;;;;;;1.48;1.30;;;10.10;99.90;;;;;;4925262;29;20047;-77
2023/06/06 01:28:04;;;;;;;1.13;0.90;;;10.10;99.90;;;;;;4939122;29;20134;-77
2023/06/06 01:30:31;;;;;;;1.25;1.20;;;10.10;99.90;;;;;;4936169;29;20181;-77
2023/06/06 01:33:07;;;;;;;0.90;0.90;;;10.10;99.90;;;;;;4924599;29;20102;-77
2023/06/06 01:36:10;;;;;;;1.17;1.10;;;10.10;99.90;;;;;;4943228;28;20051;-77
2023/06/06 01:38:42;;;;;;;7.10;0.80;;;10.10;99.90;;;;;;4937560;29;20043;-78
2023/06/06 01:41:10;;;;;;;1.35;1.25;;;10.10;99.90;;;;;;4941451;29;20059;-77
2023/06/06 01:43:38;;;;;;;0.73;0.73;;;10.10;99.90;;;;;;4944486;29;20058;-78
2023/06/06 01:46:04;;;;;;;1.25;1.25;;;10.10;99.90;;;;;;4942933;29;20047;-78
2023/06/06 01:48:31;;;;;;;0.45;0.45;;;10.10;99.90;;;;;;4937870;29;20043;-77
2023/06/06 01:50:56;;;;;;;1.02;1.02;;;10.00;99.90;;;;;;4933648;29;20126;-77
2023/06/06 01:53:22;;;;;;;0.55;0.55;;;10.00;99.90;;;;;;4936609;29;20474;-78
2023/06/06 01:55:48;;;;;;;0.50;0.50;;;9.90;99.90;;;;;;4946228;29;20092;-77
2023/06/06 01:58:15;;;;;;;0.43;0.43;;;9.80;99.90;;;;;;4924194;29;20055;-77
2023/06/06 02:00:41;;;;;;;0.32;0.32;;;9.70;99.90;;;;;;4944362;29;20134;-77
2023/06/06 02:03:06;;;;;;;0.57;0.57;;;9.70;99.90;;;;;;4937002;29;20162;-77
2023/06/06 02:05:32;;;;;;;0.50;0.50;;;9.60;99.90;;;;;;4931273;29;20047;-77
2023/06/06 02:07:57;;;;;;;0.35;0.35;;;9.60;99.90;;;;;;4935138;29;20066;-77
2023/06/06 02:10:24;;;;;;;0.40;0.40;;;9.60;99.90;;;;;;4928784;29;20055;-77
2023/06/06 02:12:50;;;;;;;0.47;0.47;;;9.60;99.90;;;;;;4940211;28;20118;-77
2023/06/06 02:15:16;;;;;;;0.50;0.50;;;9.60;99.90;;;;;;4943195;28;20923;-77
2023/06/06 02:17:42;;;;;;;0.40;0.40;;;9.60;99.90;;;;;;4940585;29;20483;-77
2023/06/06 02:20:10;;;;;;;0.70;0.68;;;9.60;99.90;;;;;;4934038;29;20043;-77
2023/06/06 02:22:36;;;;;;;0.82;0.82;;;9.60;99.90;;;;;;4936718;29;20541;-77
2023/06/06 02:25:05;;;;;;;0.60;0.60;;;9.60;99.90;;;;;;4943059;29;20079;-77
2023/06/06 02:27:33;;;;;;;0.70;0.70;;;9.60;99.90;;;;;;4933744;29;20048;-77
2023/06/06 02:29:59;;;;;;;0.77;0.77;;;9.60;99.90;;;;;;4937272;29;20123;-78
2023/06/06 02:32:25;;;;;;;1.42;1.33;;;9.60;99.90;;;;;;4939311;29;20488;-77
2023/06/06 02:34:50;;;;;;;0.52;0.52;;;9.60;99.90;;;;;;4940221;29;20134;-77
2023/06/06 02:37:16;;;;;;;0.60;0.60;;;9.60;99.90;;;;;;4939641;29;20059;-77
2023/06/06 02:39:42;;;;;;;2.15;0.70;;;9.60;99.90;;;;;;4940605;29;20503;-78
2023/06/06 02:42:07;;;;;;;0.75;0.60;;;9.60;99.90;;;;;;4942687;29;20094;-78
2023/06/06 02:44:34;;;;;;;0.47;0.47;;;9.60;99.90;;;;;;4933315;29;20127;-77
2023/06/06 02:47:00;;;;;;;0.75;0.75;;;9.60;99.90;;;;;;4933116;28;20082;-77
2023/06/06 02:49:27;;;;;;;0.65;0.65;;;9.60;99.90;;;;;;4944953;29;20509;-76
2023/06/06 02:51:54;;;;;;;0.60;0.57;;;9.60;99.90;;;;;;4932106;29;20066;-77
2023/06/06 02:54:20;;;;;;;0.57;0.57;;;9.60;99.90;;;;;;4938938;29;20079;-77
2023/06/06 02:56:45;;;;;;;0.52;0.52;;;9.60;99.90;;;;;;4942487;29;20051;-77
2023/06/06 02:59:11;;;;;;;1.20;1.20;;;9.50;99.90;;;;;;4938292;29;20060;-77
2023/06/06 03:01:44;;;;;;;0.30;0.30;;;9.50;99.90;;;;;;4926992;29;20059;-77
2023/06/06 03:04:14;;;;;;;0.88;0.65;;;9.50;99.90;;;;;;4935877;29;20055;-77
2023/06/06 03:06:40;;;;;;;0.63;0.63;;;9.50;99.90;;;;;;4933697;29;20043;-77
2023/06/06 03:09:07;;;;;;;0.80;0.57;;;9.40;99.90;;;;;;4939273;29;20047;-77
2023/06/06 03:11:34;;;;;;;1.15;1.05;;;9.50;99.90;;;;;;4930764;29;20244;-77
2023/06/06 03:14:02;;;;;;;0.93;0.93;;;9.40;99.90;;;;;;4936156;29;20103;-77
2023/06/06 03:16:28;;;;;;;0.90;0.90;;;9.30;99.90;;;;;;4926250;29;20363;-77
2023/06/06 03:18:54;;;;;;;0.65;0.65;;;9.30;99.90;;;;;;4932271;29;20047;-77
2023/06/06 03:21:20;;;;;;;0.30;0.30;;;9.30;99.90;;;;;;4934625;29;20457;-77
2023/06/06 03:23:46;;;;;;;0.50;0.40;;;9.30;99.90;;;;;;4936517;29;20043;-77
2023/06/06 03:26:13;;;;;;;0.50;0.50;;;9.30;99.90;;;;;;4935659;29;20056;-77
2023/06/06 03:28:39;;;;;;;0.82;0.82;;;9.30;99.90;;;;;;4930883;29;20058;-77
2023/06/06 03:31:05;;;;;;;0.60;0.32;;;9.40;99.90;;;;;;4930080;29;20402;-77
2023/06/06 03:33:31;;;;;;;0.60;0.60;;;9.30;99.90;;;;;;4938049;29;20042;-77
2023/06/06 03:35:57;;;;;;;0.40;0.40;;;9.40;99.90;;;;;;4930581;29;20066;-77
2023/06/06 03:38:23;;;;;;;0.40;0.40;;;9.40;99.90;;;;;;4942223;29;20046;-77
2023/06/06 03:40:49;;;;;;;0.98;0.85;;;9.40;99.90;;;;;;4939073;29;20043;-77
2023/06/06 03:43:15;;;;;;;1.30;0.70;;;9.50;99.90;;;;;;4924833;29;20155;-77
2023/06/06 03:45:40;;;;;;;0.38;0.38;;;9.50;99.90;;;;;;4942456;29;20083;-77
2023/06/06 03:48:09;;;;;;;0.60;0.60;;;9.50;99.90;;;;;;4940239;29;20047;-77
2023/06/06 03:50:34;;;;;;;;;;;9.60;99.90;;;;;;4941665;29;20537;-77
2023/06/06 03:53:01;;;;;;;8.35;1.70;;;9.60;99.90;;;;;;4930679;28;19927;-77
2023/06/06 03:55:26;;;;;;;0.55;0.55;;;9.70;99.90;;;;;;4919945;29;20039;-77
2023/06/06 03:57:55;;;;;;;0.93;0.38;;;9.80;99.90;;;;;;4939489;29;20050;-77
2023/06/06 04:00:21;;;;;;;0.47;0.47;;;10.00;99.90;;;;;;4934543;29;20051;-77
2023/06/06 04:02:48;;;;;;;0.65;0.65;;;10.10;99.90;;;;;;4937741;29;20050;-77
2023/06/06 04:05:14;;;;;;;0.73;0.73;;;10.30;99.90;;;;;;4950300;28;20520;-76
2023/06/06 04:07:39;;;;;;;1.38;1.23;;;10.40;99.90;;;;;;4942125;29;20046;-77
2023/06/06 04:10:06;;;;;;;0.70;0.70;;;10.50;99.90;;;;;;4925657;29;20063;-77
2023/06/06 04:12:31;;;;;;;0.50;0.50;;;10.70;99.90;;;;;;4934288;29;20055;-77
2023/06/06 04:14:57;;;;;;;0.82;0.82;;;10.80;99.90;;;;;;4928723;29;20520;-77
2023/06/06 04:17:24;;;;;;;1.50;1.27;;;10.80;99.90;;;;;;4929567;29;20090;-77
2023/06/06 04:19:50;;;;;;;1.10;1.00;;;11.10;99.90;;;;;;4935685;29;20044;-76
2023/06/06 04:22:17;;;;;;;0.45;0.45;;;11.20;99.90;;;;;;4939574;29;20506;-76
2023/06/06 04:24:43;;;;;;;0.60;0.60;;;11.20;99.90;;;;;;4942032;29;20097;-76
2023/06/06 04:27:09;;;;;;;0.63;0.63;;;11.20;99.90;;;;;;4940492;28;20047;-76
2023/06/06 04:29:35;;;;;;;1.00;0.77;;;11.10;99.90;;;;;;4913226;29;20040;-76
2023/06/06 04:32:04;;;;;;;1.23;1.13;;;11.00;99.90;;;;;;4926790;29;20044;-75
2023/06/06 04:34:30;;;;;;;0.68;0.68;;;10.90;99.90;;;;;;4935404;29;20551;-76
2023/06/06 04:37:03;;;;;;;0.60;0.60;;;10.90;99.90;;;;;;4939478;29;20058;-76
2023/06/06 04:39:32;;;;;;;0.55;0.50;;;10.90;99.90;;;;;;4932580;29;20055;-75
2023/06/06 04:41:59;;;;;;;0.43;0.43;;;10.90;99.90;;;;;;4931781;29;20078;-75
2023/06/06 04:44:26;;;;;;;1.95;1.80;;;10.90;99.90;;;;;;4939786;29;20073;-75
2023/06/06 04:46:52;;;;;;;0.77;0.77;;;11.00;99.90;;;;;;4936827;29;20047;-75
2023/06/06 04:49:21;;;;;;;0.93;0.93;;;11.10;99.90;;;;;;4926747;29;20056;-75
2023/06/06 04:51:47;;;;;;;1.27;1.25;;;11.10;99.90;;;;;;4934866;29;20072;-75
2023/06/06 04:54:13;;;;;;;0.90;0.90;;;11.10;99.90;;;;;;4937480;29;20059;-75
2023/06/06 04:56:40;;;;;;;0.95;0.95;;;11.30;99.90;;;;;;4940498;29;20103;-75
2023/06/06 04:59:06;;;;;;;0.85;0.70;;;11.30;99.90;;;;;;4923585;29;20464;-75
2023/06/06 05:01:41;;;;;;;0.50;0.45;;;11.40;99.90;;;;;;4929160;29;20420;-75
2023/06/06 05:04:07;;;;;;;0.82;0.82;;;11.50;99.90;;;;;;4937793;29;20047;-75
2023/06/06 05:06:34;;;;;;;0.80;0.80;;;11.50;99.90;;;;;;4925177;29;20110;-75
2023/06/06 05:09:03;;;;;;;0.77;0.77;;;11.50;99.90;;;;;;4942702;29;20500;-75
2023/06/06 05:11:29;;;;;;;0.90;0.90;;;11.50;99.90;;;;;;4935228;28;20051;-75
2023/06/06 05:13:55;;;;;;;1.55;0.65;;;11.60;99.90;;;;;;4933604;29;20058;-75
2023/06/06 05:16:21;;;;;;;1.52;1.33;;;11.60;99.90;;;;;;4939311;29;20035;-75
2023/06/06 05:18:47;;;;;;;0.50;0.50;;;11.70;99.90;;;;;;4941050;29;20080;-75
2023/06/06 05:21:14;;;;;;;0.70;0.70;;;11.70;99.90;;;;;;4937722;29;20437;-75
2023/06/06 05:23:40;;;;;;;0.82;0.73;;;11.80;99.90;;;;;;4929918;29;20441;-75
2023/06/06 05:26:05;;;;;;;2.35;1.67;;;11.80;99.90;;;;;;4944510;29;20113;-75
2023/06/06 05:28:31;;;;;;;2.03;1.83;;;11.90;99.90;;;;;;4940354;29;20406;-75
2023/06/06 05:30:57;;;;;;;0.55;0.55;;;11.90;99.90;;;;;;4932707;29;20050;-75
2023/06/06 05:33:26;;;;;;;1.77;1.35;;;12.00;99.90;;;;;;4938510;29;20063;-75
2023/06/06 05:35:55;;;;;;;1.70;1.60;;;12.10;99.90;;;;;;4940647;29;20062;-75
2023/06/06 05:38:21;;;;;;;2.25;2.00;;;12.20;99.90;;;;;;4938614;29;20052;-75
2023/06/06 05:40:46;;;;;;;5.88;2.70;;;12.40;99.90;;;;;;4934860;29;20051;-74
2023/06/06 05:43:14;;;;;;;5.57;2.08;;;12.60;99.90;;;;;;4935806;29;20035;-75
2023/06/06 05:45:39;;;;;;;1.88;1.77;;;12.90;99.90;;;;;;4943238;29;20035;-75
2023/06/06 05:48:05;;;;;;;2.65;2.45;;;13.00;99.90;;;;;;4936350;28;20093;-75
2023/06/06 05:50:31;;;;;;;4.50;3.67;;;13.20;99.90;;;;;;4944526;28;20129;-76
2023/06/06 05:52:57;;;;;;;4.47;3.67;;;13.20;99.90;;;;;;4931280;29;20558;-75
2023/06/06 05:55:33;;;;;;;4.78;3.58;;;13.20;99.90;;;;;;4946706;29;20048;-77
2023/06/06 05:58:00;;;;;;;5.13;3.42;;;13.00;99.90;;;;;;4931058;29;20046;-75
2023/06/06 06:00:28;;;;;;;3.03;2.83;;;12.80;99.90;;;;;;4931833;29;20059;-77
2023/06/06 06:02:56;;;;;;;;;;;12.80;99.90;;;;;;4929318;29;20044;-75
2023/06/06 06:05:22;;;;;;;3.10;2.83;;;12.80;99.90;;;;;;4929352;29;19973;-75
2023/06/06 06:07:52;;;;;;;5.82;3.75;;;12.80;99.90;;;;;;4934618;29;20454;-74
2023/06/06 06:10:18;;;;;;;6.78;3.47;;;12.90;99.90;;;;;;4937089;29;20439;-75
2023/06/06 06:12:43;;;;;;;2.97;2.78;;;12.90;99.90;;;;;;4939474;29;20122;-74
2023/06/06 06:15:10;;;;;;;4.05;3.55;;;13.00;99.90;;;;;;4927749;29;20035;-75
2023/06/06 06:17:36;;;;;;;1.90;1.77;;;13.00;99.90;;;;;;4934670;29;20051;-75
2023/06/06 06:20:08;;;;;;;1.63;1.52;;;13.10;99.90;;;;;;4933417;29;20505;-75
2023/06/06 06:22:35;;;;;;;1.55;1.45;;;13.10;99.90;;;;;;4929913;29;20066;-75
2023/06/06 06:25:03;;;;;;;3.63;3.33;;;13.20;99.90;;;;;;4937902;29;20048;-75
2023/06/06 06:27:32;;;;;;;3.60;2.60;;;13.40;99.90;;;;;;4938497;29;20614;-76
2023/06/06 06:30:01;;;;;;;2.00;1.90;;;13.50;99.90;;;;;;4936454;29;20817;-75
2023/06/06 06:32:27;;;;;;;2.67;2.40;;;13.70;99.90;;;;;;4930473;29;20471;-76
2023/06/06 06:34:53;;;;;;;2.13;1.77;;;13.80;99.90;;;;;;4937059;29;20049;-76
2023/06/06 06:37:18;;;;;;;3.47;2.75;;;14.00;99.90;;;;;;4941483;29;20291;-76
2023/06/06 06:39:45;;;;;;;4.70;2.63;;;14.10;99.90;;;;;;4925651;29;20134;-75
2023/06/06 06:42:11;;;;;;;2.85;1.90;;;14.00;99.90;;;;;;4936241;29;20055;-75
2023/06/06 06:44:37;;;;;;;2.45;2.25;;;14.10;99.90;;;;;;4936312;29;20059;-75
2023/06/06 06:47:03;;;;;;;3.80;2.55;;;14.30;99.90;;;;;;4939212;29;20413;-77
2023/06/06 06:49:29;;;;;;;1.73;1.63;;;14.40;99.90;;;;;;4927527;29;20059;-75
2023/06/06 06:51:56;;;;;;;2.55;1.80;;;14.60;99.90;;;;;;4941030;29;20091;-76
2023/06/06 06:54:23;;;;;;;1.55;1.45;;;14.80;99.90;;;;;;4943356;29;20055;-76
2023/06/06 06:56:51;;;;;;;2.95;2.00;;;14.90;99.90;;;;;;4930356;29;20087;-75
2023/06/06 06:59:17;;;;;;;1.03;1.03;;;15.00;99.90;;;;;;4936463;29;20071;-76
2023/06/06 07:01:49;;;;;;;1.80;1.70;;;15.10;99.90;;;;;;4937881;29;20303;-76
2023/06/06 07:04:17;;;;;;;2.40;1.70;;;15.20;99.90;;;;;;4939593;29;20412;-76
2023/06/06 07:06:46;;;;;;;2.78;2.53;;;15.30;99.90;;;;;;4933884;29;20501;-76
2023/06/06 07:09:13;;;;;;;2.17;1.73;;;15.40;99.90;;;;;;4938131;29;20055;-76
2023/06/06 07:11:39;;;;;;;2.22;2.03;;;15.50;99.90;;;;;;4932195;29;20051;-77
2023/06/06 07:14:05;;;;;;;1.48;1.38;;;15.60;99.90;;;;;;4914523;29;20485;-76
2023/06/06 07:16:31;;;;;;;2.95;2.15;;;15.80;99.90;;;;;;4930731;29;20178;-75
2023/06/06 07:18:57;;;;;;;2.08;1.98;;;15.90;99.90;;;;;;4933840;29;20103;-75
2023/06/06 07:21:25;;;;;;;2.13;1.60;;;16.10;99.90;;;;;;4939464;29;20044;-75
2023/06/06 07:23:51;;;;;;;1.85;1.70;;;16.30;99.90;;;;;;4939548;29;20056;-76
2023/06/06 07:26:17;;;;;;;3.25;2.38;;;16.40;99.90;;;;;;4934730;29;20075;-76
2023/06/06 07:28:47;;;;;;;2.25;1.25;;;16.50;99.90;;;;;;4932059;29;20044;-76
2023/06/06 07:31:14;;;;;;;1.85;1.58;;;16.60;99.90;;;;;;4933527;29;20652;-76
2023/06/06 07:33:40;;;;;;;1.40;1.30;;;16.90;99.90;;;;;;4921249;29;20043;-76
2023/06/06 07:36:07;;;;;;;1.25;1.25;;;17.20;99.90;;;;;;4935623;29;20429;-76
2023/06/06 07:38:33;;;;;;;0.85;0.85;;;17.40;99.90;;;;;;4943013;28;20509;-76
2023/06/06 07:40:58;;;;;;;3.05;2.85;;;17.50;99.90;;;;;;4935198;29;20083;-77
2023/06/06 07:43:24;;;;;;;1.70;1.60;;;17.90;99.90;;;;;;4941547;29;20115;-76
2023/06/06 07:45:50;;;;;;;1.00;1.00;;;18.20;99.90;;;;;;4939590;29;20036;-75
2023/06/06 07:48:16;;;;;;;3.28;2.13;;;18.30;99.90;;;;;;4936680;29;20040;-77
2023/06/06 07:50:42;;;;;;;5.80;3.45;;;18.30;99.90;;;;;;4942818;29;20050;-76
2023/06/06 07:53:08;;;;;;;2.15;1.95;;;18.20;99.90;;;;;;4928293;29;20059;-76
2023/06/06 07:55:35;;;;;;;4.90;2.85;;;18.20;99.90;;;;;;4944140;29;20405;-76
2023/06/06 07:58:01;;;;;;;2.05;1.95;;;18.50;99.90;;;;;;4922234;29;20058;-76
2023/06/06 08:00:27;;;;;;;1.45;1.45;;;18.30;99.90;;;;;;4939458;29;20058;-76
2023/06/06 08:02:53;;;;;;;1.38;1.27;;;18.20;99.90;;;;;;4939441;29;20055;-76
2023/06/06 08:05:18;;;;;;;1.42;1.02;;;18.30;99.90;;;;;;4935837;29;20119;-77
2023/06/06 08:07:45;;;;;;;1.85;1.73;;;18.30;99.90;;;;;;4931030;29;20750;-77
2023/06/06 08:10:11;;;;;;;2.88;2.30;;;18.20;99.90;;;;;;4935266;29;20079;-77
2023/06/06 08:12:37;;;;;;;2.83;1.10;;;18.10;99.90;;;;;;4936570;29;20035;-77
2023/06/06 08:15:06;;;;;;;1.13;1.13;;;18.20;99.90;;;;;;4936816;29;20047;-77
2023/06/06 08:17:32;;;;;;;1.77;1.67;;;18.20;99.90;;;;;;4940306;29;20054;-76
2023/06/06 08:19:58;;;;;;;1.15;1.13;;;18.50;99.90;;;;;;4940245;29;20412;-78
2023/06/06 08:22:24;;;;;;;1.85;1.75;;;18.60;99.90;;;;;;4923328;29;20129;-77
2023/06/06 08:24:50;;;;;;;2.20;0.60;;;19.00;99.90;;;;;;4928075;29;20051;-77
2023/06/06 08:27:16;;;;;;;2.90;1.35;;;19.20;99.90;;;;;;4933362;29;20047;-77
2023/06/06 08:29:42;;;;;;;0.95;0.95;;;19.40;99.90;;;;;;4931758;29;20047;-77
2023/06/06 08:32:08;;;;;;;1.75;0.75;;;19.60;99.90;;;;;;4937600;29;20420;-78
2023/06/06 08:34:34;;;;;;;1.17;1.00;;;19.70;99.90;;;;;;4938160;29;20105;-77
2023/06/06 08:37:00;;;;;;;2.53;2.00;;;19.90;99.90;;;;;;4933413;29;20067;-76
2023/06/06 08:39:26;;;;;;;4.05;2.33;;;20.00;99.90;;;;;;4936726;29;20039;-77
2023/06/06 08:41:53;;;;;;;1.02;1.02;;;20.00;99.90;;;;;;4938404;29;20550;-77
2023/06/06 08:44:21;;;;;;;1.13;0.93;;;20.30;99.90;;;;;;4932050;29;20496;-77
2023/06/06 08:46:50;;;;;;;2.53;1.88;;;20.60;99.90;;;;;;4940976;29;20119;-76
2023/06/06 08:49:19;;;;;;;1.17;1.17;;;20.90;99.90;;;;;;4931138;29;20109;-76
2023/06/06 08:51:48;;;;;;;1.73;1.63;;;21.00;99.90;;;;;;4935927;29;20091;-77
2023/06/06 08:54:13;;;;;;;0.77;0.77;;;21.20;99.90;;;;;;4935267;29;20058;-79
2023/06/06 08:56:42;;;;;;;1.48;1.20;;;21.10;99.90;;;;;;4943845;29;20048;-76
2023/06/06 08:59:10;;;;;;;0.70;0.70;;;21.10;99.90;;;;;;4938003;29;20055;-77
2023/06/06 09:01:37;;;;;;;0.88;0.88;;;21.10;99.40;;;;;;4940819;29;20138;-77
2023/06/06 09:04:04;;;;;;;0.82;0.82;;;21.10;99.90;;;;;;4938916;29;20046;-78
2023/06/06 09:06:32;;;;;;;0.88;0.88;;;21.40;98.60;;;;;;4931674;29;20125;-78
2023/06/06 09:08:58;;;;;;;1.75;1.65;;;21.10;93.90;;;;;;4943825;29;20095;-77
2023/06/06 09:11:24;;;;;;;1.95;1.85;;;21.30;99.40;;;;;;4934697;29;20051;-77
2023/06/06 09:13:50;;;;;;;0.93;0.93;;;21.50;97.00;;;;;;4943043;29;20114;-77
2023/06/06 09:16:17;;;;;;;2.40;2.20;;;21.30;94.80;;;;;;4944200;29;20496;-78
2023/06/06 09:18:43;;;;;;;1.48;1.35;;;21.20;94.20;;;;;;4943589;28;20400;-77
2023/06/06 09:21:09;;;;;;;1.90;1.23;;;21.10;96.50;;;;;;4926857;29;20051;-77
2023/06/06 09:23:34;;;;;;;0.85;0.85;;;21.50;97.50;;;;;;4934509;29;20458;-78
2023/06/06 09:26:00;;;;;;;1.23;1.23;;;21.70;99.70;;;;;;4923406;29;20044;-77
2023/06/06 09:28:39;;;;;;;1.15;1.05;;;21.90;99.20;;;;;;4929269;29;20040;-77
2023/06/06 09:31:25;;;;;;;1.85;1.75;;;21.90;92.80;;;;;;4942419;29;20397;-77
2023/06/06 09:33:53;;;;;;;1.60;0.90;;;21.70;93.60;;;;;;4937468;29;20126;-77
2023/06/06 09:36:24;;;;;;;3.03;2.83;;;21.90;94.70;;;;;;4940859;29;20095;-74
2023/06/06 09:38:51;;;;;;;1.08;0.73;;;22.10;93.70;;;;;;4941013;29;20094;-74
2023/06/06 09:41:17;;;;;;;1.02;1.02;;;22.30;93.70;;;;;;4940780;29;21126;-74
2023/06/06 09:43:43;;;;;;;1.30;1.05;;;22.60;94.80;;;;;;4940881;29;20052;-76
2023/06/06 09:46:08;;;;;;;1.05;1.05;;;22.90;94.30;;;;;;4938413;29;20602;-75
2023/06/06 09:48:34;;;;;;;2.70;2.50;;;23.20;97.30;;;;;;4932650;29;20098;-74
2023/06/06 09:51:02;;;;;;;1.90;1.42;;;23.10;87.60;;;;;;4931878;29;20052;-74
2023/06/06 09:53:30;;;;;;;1.98;1.88;;;23.20;92.60;;;;;;4940012;29;20508;-75
2023/06/06 09:56:01;;;;;;;3.83;1.75;;;23.00;86.50;;;;;;4935698;29;20065;-76
2023/06/06 09:58:31;;;;;;;2.33;2.22;;;23.10;93.00;;;;;;4934476;29;20056;-76
2023/06/06 10:00:58;;;;;;;2.72;2.35;;;23.00;82.20;;;;;;4937230;29;20087;-75
2023/06/06 10:03:24;;;;;;;1.58;1.48;;;22.80;86.40;;;;;;4934143;29;20074;-75
2023/06/06 10:05:51;;;;;;;1.52;1.42;;;23.00;90.90;;;;;;4935956;29;20043;-74
2023/06/06 10:08:18;;;;;;;2.15;1.95;;;23.20;91.00;;;;;;4934631;29;20058;-74
2023/06/06 10:10:46;;;;;;;2.05;1.95;;;23.40;92.50;;;;;;4931632;29;20478;-75
2023/06/06 10:13:17;;;;;;;2.90;2.70;;;23.60;92.00;;;;;;4939305;29;20047;-75
2023/06/06 10:15:44;;;;;;;1.58;1.48;;;23.60;84.00;;;;;;4939518;29;20066;-75
2023/06/06 10:18:09;;;;;;;1.65;1.55;;;23.60;81.90;;;;;;4937653;29;20489;-75
2023/06/06 10:20:36;;;;;;;0.98;0.98;;;23.60;86.50;;;;;;4935378;29;20081;-74
2023/06/06 10:23:02;;;;;;;1.37;1.27;;;23.70;90.30;;;;;;4938849;29;20077;-75
2023/06/06 10:25:29;;;;;;;2.40;1.45;;;23.90;84.30;;;;;;4936520;29;20070;-76
2023/06/06 10:28:07;;;;;;;1.23;1.23;;;23.80;81.30;;;;;;4945385;29;20085;-77
2023/06/06 10:30:42;;;;;;;2.47;1.65;;;23.90;79.90;;;;;;4930743;29;20047;-79
2023/06/06 10:33:33;;;;;;;1.13;1.00;;;23.90;80.90;;;;;;4935770;29;20584;-75
2023/06/06 10:36:08;;;;;;;0.90;0.90;;;24.00;84.40;;;;;;4931406;29;20375;-77
2023/06/06 10:38:34;;;;;;;1.45;1.45;;;24.20;79.90;;;;;;4936134;29;20047;-76
2023/06/06 10:41:12;;;;;;;3.33;1.30;;;24.10;80.10;;;;;;4939077;29;20055;-76
2023/06/06 10:43:38;;;;;;;1.38;1.27;;;23.90;76.90;;;;;;4923280;29;20039;-77
2023/06/06 10:46:04;;;;;;;2.08;1.88;;;23.90;77.60;;;;;;4939384;29;20461;-77
2023/06/06 10:48:56;;;;;;;1.40;0.98;;;23.60;79.60;;;;;;4942233;29;20050;-76
2023/06/06 10:51:28;;;;;;;1.00;0.95;;;23.40;80.20;;;;;;4941391;29;20598;-75
2023/06/06 10:54:16;;;;;;;1.58;0.93;;;23.50;81.80;;;;;;4938202;29;20047;-75
2023/06/06 10:56:48;;;;;;;0.80;0.80;;;23.90;80.60;;;;;;4931454;29;20050;-76
2023/06/06 10:59:14;;;;;;;1.98;1.88;;;23.80;76.10;;;;;;4927706;29;20051;-74
2023/06/06 11:01:42;;;;;;;2.40;2.20;;;23.90;82.70;;;;;;4939383;29;20047;-76
2023/06/06 11:04:21;;;;;;;0.93;0.93;;;24.20;79.70;;;;;;4933356;29;20058;-76
2023/06/06 11:06:49;;;;;;;1.30;1.25;;;24.30;75.10;;;;;;4938758;29;20066;-75
2023/06/06 11:09:20;;;;;;;0.80;0.77;;;24.20;77.40;;;;;;4932545;28;20052;-78
2023/06/06 11:11:46;;;;;;;1.00;1.00;;;24.20;79.40;;;;;;4912287;29;20302;-77
2023/06/06 11:14:11;;;;;;;1.15;1.15;;;24.30;72.50;;;;;;4942115;29;20044;-76
2023/06/06 11:16:40;;;;;;;0.82;0.82;;;24.40;77.80;;;;;;4939024;29;20054;-75
2023/06/06 11:19:17;;;;;;;1.92;1.83;;;24.50;78.70;;;;;;4938661;29;20051;-78
2023/06/06 11:21:48;;;;;;;1.65;1.55;;;24.60;74.10;;;;;;4926331;29;20047;-78
2023/06/06 11:24:15;;;;;;;1.05;1.05;;;24.50;75.30;;;;;;4938097;29;20516;-79
2023/06/06 11:26:41;;;;;;;2.97;1.77;;;24.60;75.50;;;;;;4935508;29;20047;-79
2023/06/06 11:29:09;;;;;;;1.05;1.05;;;24.40;70.90;;;;;;4926558;29;20047;-76
2023/06/06 11:31:35;;;;;;;0.85;0.85;;;24.30;73.00;;;;;;4936098;29;20040;-78
2023/06/06 11:34:09;;;;;;;1.90;1.80;;;24.10;74.20;;;;;;4929529;29;20051;-74
2023/06/06 11:36:36;;;;;;;1.17;1.08;;;24.20;76.90;;;;;;4937636;29;20322;-72
2023/06/06 11:39:04;;;;;;;4.57;2.92;;;24.00;72.30;;;;;;4938028;29;20051;-73
2023/06/06 11:41:33;;;;;;;0.88;0.88;;;24.00;75.40;;;;;;4953890;28;20051;-72
2023/06/06 11:43:59;;;;;;;1.75;1.65;;;24.00;75.40;;;;;;4940159;29;20055;-73
2023/06/06 11:46:25;;;;;;;1.48;1.38;;;24.00;74.70;;;;;;4938577;29;20048;-73
2023/06/06 11:48:58;;;;;;;1.67;1.38;;;23.70;74.20;;;;;;4941681;29;20059;-72
2023/06/06 11:51:23;;;;;;;5.53;3.08;;;23.50;75.50;;;;;;4940582;29;20050;-72
2023/06/06 11:53:49;;;;;;;2.88;1.33;;;23.30;75.80;;;;;;4940888;29;20576;-72
2023/06/06 11:56:15;;;;;;;2.53;1.95;;;23.10;75.40;;;;;;4937073;29;20057;-73
2023/06/06 11:58:42;;;;;;;2.25;2.15;;;22.90;76.70;;;;;;4939855;29;20063;-72
2023/06/06 12:01:10;;;;;;;1.65;1.55;;;23.00;79.60;;;;;;4941794;29;20051;-72
2023/06/06 12:03:38;;;;;;;5.35;2.30;;;23.10;78.00;;;;;;4930662;29;20052;-73
2023/06/06 12:06:05;;;;;;;2.15;1.35;;;23.20;76.70;;;;;;4934962;29;20048;-73
2023/06/06 12:08:35;;;;;;;5.28;1.90;;;23.10;78.00;;;;;;4934219;29;20401;-72
2023/06/06 12:11:26;;;;;;;0.90;0.90;;;23.00;79.30;;;;;;4934404;29;20058;-72
2023/06/06 12:13:53;;;;;;;3.10;2.67;;;22.90;76.10;;;;;;4927426;29;20497;-72
2023/06/06 12:16:27;;;;;;;1.13;1.13;;;23.10;77.80;;;;;;4941269;29;20349;-73
2023/06/06 12:18:54;;;;;;;0.88;0.88;;;23.30;78.20;;;;;;4935393;29;20055;-73
2023/06/06 12:21:20;;;;;;;1.70;1.60;;;23.50;78.50;;;;;;4933232;29;20050;-73
2023/06/06 12:23:47;;;;;;;2.47;2.15;;;23.70;77.30;;;;;;4931799;28;20110;-72
2023/06/06 12:26:16;;;;;;;1.63;1.33;;;23.90;76.20;;;;;;4930564;29;20555;-72
2023/06/06 12:29:00;;;;;;;2.72;2.53;;;24.20;77.90;;;;;;4934219;29;20059;-72
2023/06/06 12:31:27;;;;;;;1.80;1.70;;;24.20;74.50;;;;;;4915726;29;20151;-73
2023/06/06 12:33:57;;;;;;;2.22;2.05;;;24.30;74.20;;;;;;4938511;29;20516;-72
2023/06/06 12:36:25;;;;;;;1.67;1.58;;;24.20;75.00;;;;;;4924537;29;20048;-73
2023/06/06 12:39:03;;;;;;;2.30;1.25;;;24.20;72.70;;;;;;4939017;29;20094;-72
2023/06/06 12:41:36;;;;;;;1.23;1.20;;;24.30;74.70;;;;;;4926186;29;20047;-73
2023/06/06 12:44:07;;;;;;;6.78;2.35;;;24.50;72.10;;;;;;4936727;29;20513;-73
2023/06/06 12:46:36;;;;;;;1.88;1.77;;;24.60;72.10;;;;;;4929250;29;20066;-73
2023/06/06 12:49:01;;;;;;;1.55;0.95;;;24.60;71.50;;;;;;4927998;29;20080;-73
2023/06/06 12:51:27;;;;;;;1.85;1.75;;;24.80;74.50;;;;;;4933318;29;20044;-73
2023/06/06 12:53:53;;;;;;;1.55;1.50;;;24.70;69.50;;;;;;4939974;28;20126;-73